Catàleg de serveis del Meteocat

Dades de l'estació automàtica Castellnou de Seana

?
?
Resum diari 22:30 TU
Dades diàries de l'estació meteorològica
Temperatura mitjana 8.3 °C
Temperatura màxima 11.1 °C 14:18 TU
Temperatura mínima 5.8 °C 4:58 TU
Humitat relativa mitjana 94%
Precipitació acumulada 7.0 mm
Ratxa màxima del vent (10 m) 42.1 km/h - 297º 16:45 TU
Pressió atmosfèrica mitjana 1001.5 hPa
Irradiació solar global 2.9 MJ/m2

El tram horari està expressat en Temps Universal (TU). Cal sumar una hora en horari d'hivern i dues en horari d'estiu per passar a l'hora oficial.

Castellnou de Seana

Metadades estació meteorol´gica
Municipi Castellnou de Seana
Comarca Pla d'Urgell
Altitud 264 m
Data alta 16.12.1995
Estat actual Operativa
Dades de període
Període
TU
TM
°C
TX
°C
TN
°C
HRM
%
PPT
mm
VVM (10 m)
km/h
DVM (10 m)
graus
VVX (10 m)
km/h
PM
hPa
RS
W/m2
00:00 - 00:30 8.6 8.9 8.4 90 0.0 3.6 66 8.6 1000.5 0
00:30 - 01:00 8.1 8.4 7.8 91 0.0 4.7 65 6.5 1000.5 0
01:00 - 01:30 7.9 8.0 7.8 92 0.0 4.0 83 5.8 1000.5 0
01:30 - 02:00 7.4 7.8 7.3 92 0.0 5.4 93 6.8 1000.4 0
02:00 - 02:30 7.1 7.3 7.0 94 0.0 4.0 58 5.0 1000.5 0
02:30 - 03:00 6.9 7.1 6.9 95 0.0 3.6 43 5.8 1000.5 0
03:00 - 03:30 6.9 7.0 6.7 95 0.0 2.9 79 4.7 1000.4 0
03:30 - 04:00 6.8 6.9 6.7 96 0.0 3.6 72 5.4 1000.4 0
04:00 - 04:30 6.7 6.9 6.6 96 0.0 1.1 92 4.7 1000.6 0
04:30 - 05:00 6.2 6.7 5.8 97 0.0 0.7 4 4.3 1000.7 0
05:00 - 05:30 6.3 6.6 5.9 98 0.0 2.2 147 6.1 1000.9 0
05:30 - 06:00 6.4 6.6 6.3 98 0.0 3.6 77 5.8 1000.8 0
06:00 - 06:30 6.6 6.7 6.4 98 0.0 4.3 81 6.5 1000.8 0
06:30 - 07:00 6.8 6.9 6.7 98 0.0 3.2 84 4.7 1001.1 2
07:00 - 07:30 7.1 7.3 6.9 98 0.0 4.0 32 6.8 1001.3 17
07:30 - 08:00 7.6 7.8 7.3 97 0.0 3.6 81 5.0 1001.5 27
08:00 - 08:30 8.3 8.7 7.9 96 0.0 4.7 82 7.6 1001.6 56
08:30 - 09:00 8.9 9.1 8.7 94 0.0 4.0 86 6.5 1001.7 48
09:00 - 09:30 9.5 9.9 9.1 93 0.0 5.8 96 9.7 1001.6 105
09:30 - 10:00 10.1 10.1 9.9 88 0.0 7.2 102 10.8 1001.8 70
10:00 - 10:30 10.1 10.1 10.1 88 0.4 4.7 64 10.1 1001.9 69
10:30 - 11:00 9.9 10.1 9.7 88 0.3 4.7 38 7.9 1001.9 67
11:00 - 11:30 9.7 9.9 9.6 90 0.5 7.9 73 13.0 1001.6 82
11:30 - 12:00 10.1 10.3 9.9 90 0.0 10.4 72 15.1 1001.3 143
12:00 - 12:30 10.3 10.4 10.2 89 0.1 10.4 61 15.5 1001.0 132
12:30 - 13:00 10.1 10.3 9.9 89 0.4 13.0 64 20.2 1000.7 156
13:00 - 13:30 10.3 10.4 10.3 88 0.1 13.3 56 20.9 1000.6 148
13:30 - 14:00 10.4 10.7 10.2 85 0.0 14.0 57 22.3 1000.4 161
14:00 - 14:30 10.8 11.1 10.3 85 0.0 13.3 54 24.5 1000.2 199
14:30 - 15:00 10.9 11.0 10.8 85 0.0 12.2 48 23.0 1000.1 78
15:00 - 15:30 10.7 10.8 10.7 86 0.0 11.9 40 21.6 1000.1 51
15:30 - 16:00 10.4 10.7 10.2 88 0.0 10.4 43 22.7 1000.1 12
16:00 - 16:30 10.0 10.2 9.9 90 0.1 5.8 77 13.7 1000.1 3
16:30 - 17:00 9.8 10.2 9.1 91 3.0 14.4 325 42.1 1001.2 0
17:00 - 17:30 9.0 9.1 8.9 97 2.1 8.6 21 18.7 1001.5 0
17:30 - 18:00 8.8 9.0 8.1 98 0.0 3.2 68 6.1 1001.7 0
18:00 - 18:30 7.9 8.1 7.5 98 0.0 5.8 158 9.7 1002.0 0
18:30 - 19:00 7.6 7.9 7.4 99 0.0 7.2 168 9.7 1002.6 0
19:00 - 19:30 7.5 7.7 7.3 99 0.0 4.3 201 8.3 1003.0 0
19:30 - 20:00 7.1 7.4 7.0 99 0.0 6.1 217 8.3 1003.5 0
20:00 - 20:30 7.3 7.4 7.2 100 0.0 4.7 215 7.9 1003.9 0
20:30 - 21:00 6.8 7.3 6.4 100 0.0 2.2 14 6.5 1004.1 0
21:00 - 21:30 6.7 7.1 6.4 100 0.0 3.2 26 5.4 1004.2 0
21:30 - 22:00 6.6 6.8 6.2 100 0.0 4.3 117 7.9 1004.5 0
22:00 - 22:30 6.4 6.5 6.2 100 0.0 4.7 185 7.9 1005.0 0
22:30 - 23:00 6.3 6.4 6.3 100 0.0 2.5 137 4.7 1005.2 0

Les dades en taronja només han passat un control de qualitat automàtic. Resta pendent la seva validació definitiva.